Time;durP1;ratioP1;P1;durP2;ratioP2;P2;SDS_P1;SDS_P2;PMS_P1;PMS_P2;Temp;Humidity;BMP_temperature;BMP_pressure;BME280_temperature;BME280_humidity;BME280_pressure;Samples;Min_cycle;Max_cycle;Signal;HPM_P1;HPM_P2
2023/04/16 00:01:03;;;;;;;10.50;6.53;;;8.90;96.60;;;;;;6155798;23;20005;-65
2023/04/16 00:03:29;;;;;;;9.97;5.80;;;8.90;96.60;;;;;;6155359;23;20005;-65
2023/04/16 00:05:55;;;;;;;9.83;5.97;;;8.90;96.60;;;;;;6155627;23;20049;-68
2023/04/16 00:08:23;;;;;;;12.10;5.77;;;8.80;96.60;;;;;;6155296;23;20014;-65
2023/04/16 00:10:50;;;;;;;9.10;5.33;;;8.80;96.50;;;;;;6155557;23;20001;-66
2023/04/16 00:13:16;;;;;;;9.63;5.50;;;8.80;96.60;;;;;;6155637;23;20040;-66
2023/04/16 00:15:41;;;;;;;9.10;5.47;;;8.80;96.80;;;;;;6155538;23;20428;-65
2023/04/16 00:18:07;;;;;;;9.53;5.17;;;8.70;96.80;;;;;;6155229;23;20076;-66
2023/04/16 00:20:33;;;;;;;10.40;5.27;;;8.70;96.80;;;;;;6155402;23;20004;-65
2023/04/16 00:22:58;;;;;;;8.57;5.17;;;8.70;96.70;;;;;;6155288;23;20005;-65
2023/04/16 00:25:24;;;;;;;7.87;4.83;;;8.70;96.90;;;;;;6155653;23;20001;-65
2023/04/16 00:27:50;;;;;;;8.67;4.77;;;8.70;96.90;;;;;;6155177;23;20114;-64
2023/04/16 00:30:15;;;;;;;6.73;4.20;;;8.60;96.90;;;;;;6155498;23;20364;-65
2023/04/16 00:32:41;;;;;;;8.57;4.40;;;8.60;96.80;;;;;;6155233;23;20008;-65
2023/04/16 00:35:07;;;;;;;8.17;4.37;;;8.60;96.90;;;;;;6155424;23;20001;-65
2023/04/16 00:37:33;;;;;;;6.63;4.43;;;8.60;96.80;;;;;;6155411;23;20024;-65
2023/04/16 00:40:00;;;;;;;6.57;3.93;;;8.50;96.80;;;;;;6155259;23;20005;-65
2023/04/16 00:42:26;;;;;;;7.90;4.17;;;8.50;97.10;;;;;;6155104;23;20001;-65
2023/04/16 00:44:51;;;;;;;7.83;3.97;;;8.50;97.10;;;;;;6155227;23;20301;-66
2023/04/16 00:47:19;;;;;;;5.87;3.63;;;8.50;97.10;;;;;;6155228;23;20009;-65
2023/04/16 00:49:46;;;;;;;6.10;3.27;;;8.50;97.10;;;;;;6153474;23;19997;-65
2023/04/16 00:52:11;;;;;;;6.17;3.77;;;8.50;97.10;;;;;;6155242;23;20428;-65
2023/04/16 00:54:38;;;;;;;5.87;3.50;;;8.50;97.20;;;;;;6154982;23;20005;-65
2023/04/16 00:57:04;;;;;;;6.60;3.43;;;8.50;97.10;;;;;;6156261;23;20797;-66
2023/04/16 00:59:31;;;;;;;6.80;3.60;;;8.50;97.10;;;;;;6153578;23;20085;-65
2023/04/16 01:01:57;;;;;;;5.87;3.57;;;8.40;97.10;;;;;;6153909;23;20512;-65
2023/04/16 01:04:23;;;;;;;5.60;3.77;;;8.40;97.10;;;;;;6154655;23;20025;-65
2023/04/16 01:06:48;;;;;;;6.57;4.00;;;8.40;97.00;;;;;;6130511;23;20440;-64
2023/04/16 01:09:14;;;;;;;6.27;3.90;;;8.40;97.00;;;;;;6157249;23;20008;-65
2023/04/16 01:11:40;;;;;;;6.83;4.47;;;8.40;97.10;;;;;;6157466;23;20455;-66
2023/04/16 01:14:06;;;;;;;6.47;3.90;;;8.40;97.10;;;;;;6156605;23;20373;-65
2023/04/16 01:16:31;;;;;;;7.60;4.20;;;8.30;97.10;;;;;;6156824;23;20005;-66
2023/04/16 01:18:57;;;;;;;6.13;4.10;;;8.30;97.10;;;;;;6157202;23;20012;-65
2023/04/16 01:21:23;;;;;;;5.30;3.57;;;8.30;97.00;;;;;;6156670;23;20076;-65
2023/04/16 01:23:49;;;;;;;7.07;4.30;;;8.30;96.90;;;;;;6156773;23;20035;-66
2023/04/16 01:26:15;;;;;;;4.80;3.57;;;8.20;96.90;;;;;;6156759;23;20006;-66
2023/04/16 01:28:41;;;;;;;6.90;4.33;;;8.20;96.90;;;;;;6156601;23;20447;-65
2023/04/16 01:31:06;;;;;;;8.03;3.80;;;8.20;97.00;;;;;;6156613;23;20047;-65
2023/04/16 01:33:32;;;;;;;4.83;3.47;;;8.20;96.30;;;;;;6157297;23;20013;-65
2023/04/16 01:35:58;;;;;;;5.90;3.73;;;8.10;96.40;;;;;;6156493;23;20351;-65
2023/04/16 01:38:24;;;;;;;6.03;3.67;;;8.10;96.40;;;;;;6157344;23;20089;-64
2023/04/16 01:40:54;;;;;;;6.30;3.23;;;8.10;96.60;;;;;;6156783;23;20049;-64
2023/04/16 01:43:19;;;;;;;5.73;2.90;;;8.00;96.80;;;;;;6156081;23;20427;-65
2023/04/16 01:45:45;;;;;;;6.73;3.30;;;8.00;96.90;;;;;;6156415;23;20006;-65
2023/04/16 01:48:11;;;;;;;6.13;3.57;;;8.00;96.50;;;;;;6156421;23;20041;-65
2023/04/16 01:50:37;;;;;;;4.60;3.10;;;8.00;96.70;;;;;;6156546;23;20343;-65
2023/04/16 01:53:03;;;;;;;4.17;3.00;;;7.90;96.80;;;;;;6156774;23;20025;-65
2023/04/16 01:55:30;;;;;;;4.93;2.50;;;7.90;96.80;;;;;;6156610;23;20332;-66
2023/04/16 01:57:56;;;;;;;4.40;3.03;;;7.90;97.00;;;;;;6156870;23;20017;-64
2023/04/16 02:00:22;;;;;;;5.03;3.00;;;7.90;96.90;;;;;;6156918;23;20025;-65
2023/04/16 02:02:48;;;;;;;5.53;2.53;;;7.90;96.80;;;;;;6156895;23;20005;-65
2023/04/16 02:05:13;;;;;;;5.73;2.57;;;7.80;97.00;;;;;;6156598;23;20005;-65
2023/04/16 02:07:39;;;;;;;7.70;2.33;;;7.80;97.00;;;;;;6156453;23;20010;-65
2023/04/16 02:10:06;;;;;;;3.00;2.00;;;7.80;97.10;;;;;;6156461;23;20007;-65
2023/04/16 02:12:32;;;;;;;2.87;1.60;;;7.80;97.10;;;;;;6156566;23;20036;-65
2023/04/16 02:14:59;;;;;;;3.50;1.80;;;7.80;97.20;;;;;;6156446;23;20006;-64
2023/04/16 02:17:25;;;;;;;4.20;1.60;;;7.70;96.90;;;;;;6156337;23;20012;-65
2023/04/16 02:19:51;;;;;;;3.73;1.93;;;7.80;97.10;;;;;;6156844;23;20001;-65
2023/04/16 02:22:16;;;;;;;1.50;1.20;;;7.80;97.40;;;;;;6157092;23;20416;-65
2023/04/16 02:24:42;;;;;;;3.23;1.40;;;7.80;96.90;;;;;;6156307;23;20443;-65
2023/04/16 02:27:08;;;;;;;2.40;1.30;;;7.80;96.90;;;;;;6156117;23;20009;-66
2023/04/16 02:29:34;;;;;;;3.10;1.80;;;7.80;96.40;;;;;;6156538;23;20012;-64
2023/04/16 02:31:59;;;;;;;1.73;1.30;;;7.60;96.10;;;;;;6156540;23;20005;-65
2023/04/16 02:34:25;;;;;;;3.17;1.60;;;7.50;96.60;;;;;;6156276;23;20001;-66
2023/04/16 02:36:51;;;;;;;2.70;1.50;;;7.50;97.00;;;;;;6156439;23;20001;-65
2023/04/16 02:39:17;;;;;;;1.23;1.03;;;7.50;96.80;;;;;;6156153;23;20036;-65
2023/04/16 02:41:42;;;;;;;1.67;1.00;;;7.40;97.10;;;;;;6156567;23;20072;-65
2023/04/16 02:44:08;;;;;;;3.23;1.43;;;7.40;97.40;;;;;;6156361;23;20020;-65
2023/04/16 02:46:34;;;;;;;2.03;1.10;;;7.40;97.60;;;;;;6156417;23;19998;-65
2023/04/16 02:48:59;;;;;;;2.07;1.20;;;7.50;97.70;;;;;;6156189;23;20080;-65
2023/04/16 02:51:26;;;;;;;1.43;1.00;;;7.50;97.70;;;;;;6155812;23;20024;-65
2023/04/16 02:53:52;;;;;;;2.30;1.20;;;7.70;97.60;;;;;;6156197;23;20507;-65
2023/04/16 02:56:17;;;;;;;3.27;1.00;;;7.70;97.30;;;;;;6130233;23;20009;-65
2023/04/16 02:58:43;;;;;;;2.00;0.93;;;7.70;97.00;;;;;;6129863;23;20006;-65
2023/04/16 03:01:09;;;;;;;1.87;1.03;;;7.70;96.60;;;;;;6156591;23;20036;-65
2023/04/16 03:03:35;;;;;;;2.63;1.37;;;7.70;96.80;;;;;;6156141;23;20002;-65
2023/04/16 03:06:01;;;;;;;2.10;1.10;;;7.70;96.80;;;;;;6156114;23;20372;-65
2023/04/16 03:08:26;;;;;;;2.63;1.30;;;7.70;96.60;;;;;;6155871;23;20104;-65
2023/04/16 03:10:52;;;;;;;2.00;0.80;;;7.80;96.40;;;;;;6155862;23;20009;-64
2023/04/16 03:13:18;;;;;;;1.30;0.90;;;7.90;96.30;;;;;;6155865;23;20153;-64
2023/04/16 03:15:50;;;;;;;2.00;1.03;;;8.00;96.30;;;;;;6156114;23;20092;-65
2023/04/16 03:18:16;;;;;;;2.35;1.20;;;8.10;96.30;;;;;;6155920;23;20014;-65
2023/04/16 03:20:41;;;;;;;3.80;1.30;;;8.10;96.00;;;;;;6156030;23;20055;-67
2023/04/16 03:23:07;;;;;;;2.40;1.40;;;8.20;95.90;;;;;;6155808;23;20012;-66
2023/04/16 03:25:33;;;;;;;3.37;1.20;;;8.20;96.00;;;;;;6155979;23;20013;-64
2023/04/16 03:27:58;;;;;;;3.43;1.30;;;8.20;96.20;;;;;;6155479;23;20014;-65
2023/04/16 03:30:24;;;;;;;4.37;1.23;;;8.20;95.90;;;;;;6155996;23;20328;-65
2023/04/16 03:32:50;;;;;;;3.87;1.10;;;8.10;95.70;;;;;;6155820;23;20105;-65
2023/04/16 03:35:16;;;;;;;5.93;1.47;;;8.10;96.00;;;;;;6156120;23;20004;-65
2023/04/16 03:37:42;;;;;;;3.83;1.73;;;8.10;95.80;;;;;;6155975;23;20006;-66
2023/04/16 03:40:08;;;;;;;3.00;2.03;;;8.00;95.70;;;;;;6156049;23;20105;-65
2023/04/16 03:42:33;;;;;;;2.17;1.30;;;8.00;96.00;;;;;;6156321;23;20009;-65
2023/04/16 03:44:59;;;;;;;2.77;1.50;;;8.00;96.10;;;;;;6155842;23;20001;-64
2023/04/16 03:47:25;;;;;;;2.60;1.60;;;8.00;96.20;;;;;;6155513;23;20005;-64
2023/04/16 03:49:51;;;;;;;3.47;1.50;;;8.00;96.00;;;;;;6155720;23;20428;-65
2023/04/16 03:52:17;;;;;;;3.03;1.90;;;8.00;95.60;;;;;;6155937;23;20005;-65
2023/04/16 03:54:42;;;;;;;2.90;2.00;;;8.00;95.50;;;;;;6156023;23;20009;-65
2023/04/16 03:57:08;;;;;;;3.33;2.77;;;7.90;95.20;;;;;;6155497;23;20002;-65
2023/04/16 03:59:34;;;;;;;2.37;1.70;;;7.90;95.60;;;;;;6155697;23;20081;-64
2023/04/16 04:02:00;;;;;;;3.50;1.77;;;7.80;95.70;;;;;;6155667;23;20001;-65
2023/04/16 04:04:26;;;;;;;3.90;1.80;;;7.90;95.80;;;;;;6155800;23;20002;-65
2023/04/16 04:06:51;;;;;;;2.40;1.53;;;7.90;95.60;;;;;;6155693;23;20128;-64
2023/04/16 04:09:17;;;;;;;2.30;1.60;;;7.90;95.50;;;;;;6155554;23;20005;-64
2023/04/16 04:11:43;;;;;;;2.43;1.57;;;7.90;95.60;;;;;;6155432;23;19998;-64
2023/04/16 04:14:08;;;;;;;2.80;1.10;;;7.80;95.30;;;;;;6155272;23;20005;-65
2023/04/16 04:16:34;;;;;;;1.83;1.60;;;7.80;95.60;;;;;;6155555;23;20004;-64
2023/04/16 04:19:00;;;;;;;4.30;1.40;;;7.80;95.80;;;;;;6155485;23;19998;-64
2023/04/16 04:21:30;;;;;;;2.07;1.40;;;7.80;95.70;;;;;;6155436;23;20006;-65
2023/04/16 04:23:56;;;;;;;2.20;0.97;;;7.80;95.60;;;;;;6155443;23;19997;-65
2023/04/16 04:26:21;;;;;;;1.50;1.00;;;7.80;95.80;;;;;;6155426;23;20052;-65
2023/04/16 04:28:47;;;;;;;3.40;1.10;;;7.80;95.80;;;;;;6155016;23;20088;-65
2023/04/16 04:31:13;;;;;;;2.70;1.10;;;7.80;95.90;;;;;;6155031;23;19997;-65
2023/04/16 04:33:39;;;;;;;3.70;1.03;;;7.80;95.90;;;;;;6155494;23;20060;-64
2023/04/16 04:36:05;;;;;;;2.13;1.30;;;7.80;96.10;;;;;;6155502;23;20056;-65
2023/04/16 04:38:31;;;;;;;2.03;1.20;;;7.80;96.00;;;;;;6155622;23;20001;-65
2023/04/16 04:40:57;;;;;;;2.03;1.20;;;7.80;95.80;;;;;;6155318;23;20009;-65
2023/04/16 04:43:23;;;;;;;1.73;1.20;;;7.80;96.00;;;;;;6155325;23;20102;-65
2023/04/16 04:45:49;;;;;;;1.73;1.10;;;7.80;95.80;;;;;;6155359;23;20006;-65
2023/04/16 04:48:15;;;;;;;2.50;1.00;;;7.70;95.60;;;;;;6155249;23;20010;-65
2023/04/16 04:50:41;;;;;;;1.67;1.03;;;7.70;95.80;;;;;;6155020;23;20013;-65
2023/04/16 04:53:10;;;;;;;1.87;0.97;;;7.80;95.70;;;;;;6155498;23;20008;-65
2023/04/16 04:55:37;;;;;;;2.07;0.97;;;7.80;95.60;;;;;;6129113;23;20009;-65
2023/04/16 04:58:06;;;;;;;2.30;0.90;;;7.80;95.20;;;;;;6155310;23;20305;-65
2023/04/16 05:00:33;;;;;;;2.57;0.90;;;7.80;95.20;;;;;;6155144;23;20016;-65
2023/04/16 05:03:04;;;;;;;1.30;0.70;;;7.90;95.40;;;;;;6155256;23;20010;-65
2023/04/16 05:05:31;;;;;;;0.97;0.67;;;8.00;95.40;;;;;;6155059;23;20031;-65
2023/04/16 05:07:56;;;;;;;1.40;0.80;;;8.00;95.40;;;;;;6154841;23;20080;-65
2023/04/16 05:10:22;;;;;;;1.53;1.00;;;8.10;95.50;;;;;;6129084;23;20502;-65
2023/04/16 05:12:48;;;;;;;0.90;0.80;;;8.10;95.50;;;;;;6155246;23;20036;-65
2023/04/16 05:15:14;;;;;;;1.20;0.80;;;8.10;95.50;;;;;;6155277;23;20080;-66
2023/04/16 05:17:40;;;;;;;3.17;1.10;;;8.10;95.50;;;;;;6155316;23;20009;-65
2023/04/16 05:20:10;;;;;;;1.43;0.97;;;8.10;95.60;;;;;;6155308;23;20372;-66
2023/04/16 05:22:36;;;;;;;1.83;1.20;;;8.10;95.70;;;;;;6155322;23;20444;-65
2023/04/16 05:25:02;;;;;;;2.07;1.20;;;8.10;95.80;;;;;;6155054;23;20002;-64
2023/04/16 05:27:28;;;;;;;1.73;1.17;;;8.10;96.20;;;;;;6154639;23;20351;-65
2023/04/16 05:29:54;;;;;;;1.83;1.23;;;8.10;96.10;;;;;;6155020;23;20006;-65
2023/04/16 05:32:19;;;;;;;1.23;0.80;;;8.10;96.20;;;;;;6155110;23;20013;-65
2023/04/16 05:34:45;;;;;;;1.20;0.93;;;8.20;95.60;;;;;;6155067;23;20465;-65
2023/04/16 05:37:11;;;;;;;2.03;0.90;;;8.20;95.80;;;;;;6155198;23;20033;-65
2023/04/16 05:39:37;;;;;;;1.33;0.60;;;8.20;95.80;;;;;;6155043;23;20010;-65
2023/04/16 05:42:02;;;;;;;1.13;0.70;;;8.20;95.90;;;;;;6155499;23;20033;-65
2023/04/16 05:44:28;;;;;;;4.33;1.00;;;8.30;95.70;;;;;;6156861;23;20395;-65
2023/04/16 05:46:54;;;;;;;1.00;0.60;;;8.30;95.70;;;;;;6156780;23;20092;-65
2023/04/16 05:49:20;;;;;;;0.83;0.60;;;8.40;95.50;;;;;;6156515;23;20084;-66
2023/04/16 05:51:49;;;;;;;1.03;0.60;;;8.40;95.40;;;;;;6156438;23;20013;-65
2023/04/16 05:54:15;;;;;;;3.63;0.70;;;8.50;95.30;;;;;;6157131;23;20332;-66
2023/04/16 05:56:41;;;;;;;1.23;0.90;;;8.60;95.10;;;;;;6156846;23;20033;-64
2023/04/16 05:59:07;;;;;;;2.87;1.10;;;8.60;95.10;;;;;;6156568;23;20024;-66
2023/04/16 06:01:32;;;;;;;5.57;1.20;;;8.70;95.10;;;;;;6156501;23;20048;-66
2023/04/16 06:03:58;;;;;;;2.33;1.03;;;8.70;94.90;;;;;;6156390;23;20005;-66
2023/04/16 06:06:26;;;;;;;1.07;0.90;;;8.80;94.80;;;;;;6152952;23;20010;-66
2023/04/16 06:08:52;;;;;;;1.40;1.00;;;8.80;95.00;;;;;;6153212;23;20426;-66
2023/04/16 06:11:18;;;;;;;1.53;0.90;;;8.80;95.20;;;;;;6154510;23;20010;-66
2023/04/16 06:13:43;;;;;;;2.83;0.97;;;8.90;95.30;;;;;;6155788;23;20479;-65
2023/04/16 06:16:09;;;;;;;2.90;1.20;;;8.90;95.30;;;;;;6154451;23;20072;-65
2023/04/16 06:18:35;;;;;;;2.97;1.00;;;8.90;95.50;;;;;;6151303;23;20001;-66
2023/04/16 06:21:02;;;;;;;1.57;0.90;;;9.00;95.80;;;;;;6151612;23;20001;-66
2023/04/16 06:23:27;;;;;;;2.40;1.33;;;9.00;96.00;;;;;;6156225;23;20006;-65
2023/04/16 06:25:54;;;;;;;2.63;1.07;;;9.00;96.20;;;;;;6154865;23;20379;-65
2023/04/16 06:28:19;;;;;;;4.80;1.57;;;9.10;96.20;;;;;;6155094;23;20332;-66
2023/04/16 06:30:46;;;;;;;12.20;1.87;;;9.10;96.50;;;;;;6156409;23;20002;-66
2023/04/16 06:33:12;;;;;;;5.13;1.40;;;9.10;96.30;;;;;;6156274;23;20001;-68
2023/04/16 06:35:37;;;;;;;10.00;1.33;;;9.20;96.40;;;;;;6156385;23;20001;-67
2023/04/16 06:38:03;;;;;;;1.40;1.00;;;9.20;96.60;;;;;;6156749;23;20424;-68
2023/04/16 06:40:29;;;;;;;2.10;1.20;;;9.20;96.70;;;;;;6156583;23;20368;-67
2023/04/16 06:42:55;;;;;;;2.67;1.23;;;9.30;96.70;;;;;;6156169;23;20033;-66
2023/04/16 06:45:20;;;;;;;2.97;1.10;;;9.40;96.60;;;;;;6155800;23;20017;-66
2023/04/16 06:47:46;;;;;;;1.97;1.40;;;9.40;96.90;;;;;;6155215;23;20448;-64
2023/04/16 06:50:12;;;;;;;4.93;1.90;;;9.40;97.00;;;;;;6155486;23;20017;-65
2023/04/16 06:52:38;;;;;;;2.00;1.70;;;9.50;97.10;;;;;;6153686;23;20085;-67
2023/04/16 06:55:06;;;;;;;16.13;1.77;;;9.50;97.10;;;;;;6153290;23;20005;-68
2023/04/16 06:57:31;;;;;;;4.37;1.80;;;9.60;96.90;;;;;;6155802;23;20005;-68
2023/04/16 06:59:57;;;;;;;2.77;1.57;;;9.60;97.00;;;;;;6156199;23;20005;-68
2023/04/16 07:02:23;;;;;;;2.83;1.93;;;9.60;97.40;;;;;;6156161;23;20008;-68
2023/04/16 07:04:49;;;;;;;6.83;1.83;;;9.70;97.50;;;;;;6155855;23;20136;-67
2023/04/16 07:07:14;;;;;;;2.80;1.70;;;9.70;97.40;;;;;;6156058;23;20318;-66
2023/04/16 07:09:40;;;;;;;2.80;1.70;;;9.70;97.00;;;;;;6155902;23;20080;-67
2023/04/16 07:12:07;;;;;;;2.60;1.77;;;9.80;96.90;;;;;;6155620;23;20048;-67
2023/04/16 07:14:32;;;;;;;2.90;1.90;;;9.80;96.70;;;;;;6155550;23;20455;-67
2023/04/16 07:16:58;;;;;;;2.40;1.77;;;9.80;96.60;;;;;;6155266;23;20002;-67
2023/04/16 07:19:24;;;;;;;4.50;1.60;;;9.90;96.70;;;;;;6155986;23;20006;-67
2023/04/16 07:21:50;;;;;;;2.47;1.47;;;9.90;96.40;;;;;;6155981;23;20009;-67
2023/04/16 07:24:16;;;;;;;2.93;1.30;;;10.00;96.10;;;;;;6155807;23;20025;-67
2023/04/16 07:26:42;;;;;;;3.97;1.30;;;10.00;96.00;;;;;;6155564;23;20064;-67
2023/04/16 07:29:07;;;;;;;3.03;1.20;;;10.10;96.10;;;;;;6129653;23;20337;-68
2023/04/16 07:31:33;;;;;;;1.70;1.30;;;10.10;95.70;;;;;;6155217;23;20416;-68
2023/04/16 07:33:59;;;;;;;1.67;1.10;;;10.20;95.30;;;;;;6155466;23;20005;-67
2023/04/16 07:36:27;;;;;;;1.52;1.00;;;10.20;94.90;;;;;;6155621;23;20324;-68
2023/04/16 07:38:52;;;;;;;2.20;1.13;;;10.30;94.40;;;;;;6155429;23;20009;-68
2023/04/16 07:41:18;;;;;;;2.60;1.20;;;10.40;93.90;;;;;;6155331;23;20443;-68
2023/04/16 07:43:44;;;;;;;2.05;1.13;;;10.40;93.40;;;;;;6155420;23;20009;-67
2023/04/16 07:46:10;;;;;;;1.95;1.00;;;10.50;92.70;;;;;;6155947;23;20001;-68
2023/04/16 07:48:35;;;;;;;1.73;0.90;;;10.60;91.50;;;;;;6155555;23;20043;-68
2023/04/16 07:51:01;;;;;;;1.27;0.82;;;10.60;92.10;;;;;;6154935;23;20096;-68
2023/04/16 07:53:27;;;;;;;1.27;0.90;;;10.70;91.80;;;;;;6154306;23;20005;-68
2023/04/16 07:55:53;;;;;;;1.85;0.90;;;10.80;91.30;;;;;;6152938;23;20005;-68
2023/04/16 07:58:18;;;;;;;2.13;1.10;;;10.90;91.30;;;;;;6155276;23;20005;-68
2023/04/16 08:00:44;;;;;;;1.15;0.80;;;10.90;90.90;;;;;;6155550;23;20001;-68
2023/04/16 08:03:10;;;;;;;2.15;1.10;;;11.00;91.20;;;;;;6155697;23;20012;-69
2023/04/16 08:05:36;;;;;;;1.73;0.90;;;11.00;91.20;;;;;;6155520;23;20068;-67
2023/04/16 08:08:01;;;;;;;0.80;0.70;;;11.10;91.00;;;;;;6155280;23;20021;-68
2023/04/16 08:10:27;;;;;;;0.77;0.68;;;11.10;91.10;;;;;;6154349;23;20065;-68
2023/04/16 08:12:53;;;;;;;1.60;1.00;;;11.10;90.50;;;;;;6155317;23;20084;-68
2023/04/16 08:15:19;;;;;;;1.40;0.90;;;11.10;90.40;;;;;;6154741;23;19997;-68
2023/04/16 08:17:45;;;;;;;2.08;1.13;;;11.20;90.50;;;;;;6155528;23;20008;-68
2023/04/16 08:20:10;;;;;;;2.50;0.90;;;11.30;90.00;;;;;;6155629;23;20048;-68
2023/04/16 08:22:36;;;;;;;1.63;1.00;;;11.30;88.30;;;;;;6155683;23;19997;-67
2023/04/16 08:25:03;;;;;;;1.58;0.77;;;11.40;89.00;;;;;;6155615;23;20420;-68
2023/04/16 08:27:28;;;;;;;1.25;0.85;;;11.40;90.20;;;;;;6155813;23;20015;-67
2023/04/16 08:29:55;;;;;;;2.08;0.88;;;11.50;87.80;;;;;;6155361;23;20009;-67
2023/04/16 08:32:21;;;;;;;1.70;0.90;;;11.60;87.20;;;;;;6155600;23;20005;-69
2023/04/16 08:34:46;;;;;;;5.18;0.80;;;11.60;87.30;;;;;;6126519;23;20013;-68
2023/04/16 08:37:12;;;;;;;1.77;0.63;;;11.60;87.00;;;;;;6154827;23;20044;-68
2023/04/16 08:39:38;;;;;;;2.90;0.70;;;11.60;87.30;;;;;;6154986;23;20013;-68
2023/04/16 08:42:04;;;;;;;1.50;0.90;;;11.70;86.70;;;;;;6155605;23;20011;-67
2023/04/16 08:44:36;;;;;;;2.30;1.10;;;11.70;87.50;;;;;;6155528;23;20002;-67
2023/04/16 08:47:02;;;;;;;1.47;0.90;;;11.80;87.20;;;;;;6155528;23;20085;-67
2023/04/16 08:49:28;;;;;;;1.83;0.90;;;11.90;86.00;;;;;;6155446;23;20049;-67
2023/04/16 08:51:55;;;;;;;1.65;0.82;;;11.90;83.40;;;;;;6129301;23;20021;-67
2023/04/16 08:54:38;;;;;;;1.40;0.90;;;12.00;83.90;;;;;;6155546;23;20009;-67
2023/04/16 08:57:07;;;;;;;1.98;0.80;;;12.10;84.40;;;;;;6155607;23;19998;-66
2023/04/16 08:59:34;;;;;;;1.98;0.75;;;12.10;84.30;;;;;;6151599;23;20077;-67
2023/04/16 09:02:00;;;;;;;3.80;0.70;;;12.10;83.30;;;;;;6151885;23;20020;-67
2023/04/16 09:04:29;;;;;;;1.92;1.27;;;12.20;83.10;;;;;;6153068;23;20009;-66
2023/04/16 09:06:57;;;;;;;1.33;0.73;;;12.20;83.10;;;;;;6155100;23;20048;-67
2023/04/16 09:09:25;;;;;;;1.27;0.93;;;12.30;83.90;;;;;;6155267;23;20331;-67
2023/04/16 09:11:51;;;;;;;2.95;0.80;;;12.30;82.60;;;;;;6155130;23;20025;-67
2023/04/16 09:14:18;;;;;;;2.17;0.75;;;12.40;84.20;;;;;;6155052;23;20013;-67
2023/04/16 09:16:46;;;;;;;1.58;0.80;;;12.40;83.40;;;;;;6155483;23;20081;-67
2023/04/16 09:19:13;;;;;;;1.30;0.75;;;12.50;82.90;;;;;;6157236;23;20012;-67
2023/04/16 09:21:40;;;;;;;1.02;0.60;;;12.60;82.30;;;;;;6157053;23;19997;-67
2023/04/16 09:24:08;;;;;;;0.73;0.70;;;12.70;80.30;;;;;;6157346;23;20002;-67
2023/04/16 09:26:34;;;;;;;1.70;1.02;;;12.80;79.10;;;;;;6157049;23;19997;-67
2023/04/16 09:29:00;;;;;;;1.38;0.60;;;12.90;79.00;;;;;;6156841;23;20009;-67
2023/04/16 09:31:26;;;;;;;1.35;0.55;;;12.90;80.00;;;;;;6157405;23;20141;-67
2023/04/16 09:34:08;;;;;;;1.52;0.60;;;13.00;77.70;;;;;;6157234;23;20033;-67
2023/04/16 09:36:35;;;;;;;1.60;0.53;;;13.10;78.00;;;;;;6156929;23;20002;-67
2023/04/16 09:39:02;;;;;;;0.35;0.32;;;13.20;77.10;;;;;;6156988;23;20296;-67
2023/04/16 09:41:30;;;;;;;0.60;0.32;;;13.30;74.10;;;;;;6157052;23;20005;-67
2023/04/16 09:43:57;;;;;;;1.00;0.52;;;13.40;72.80;;;;;;6157078;23;20032;-67
2023/04/16 09:46:43;;;;;;;0.50;0.50;;;13.50;70.80;;;;;;6156805;23;20068;-67
2023/04/16 09:49:15;;;;;;;1.92;0.73;;;13.60;70.70;;;;;;6155900;23;20056;-67
2023/04/16 09:51:42;;;;;;;;;;;13.60;70.70;;;;;;6157381;23;20079;-67
2023/04/16 09:54:08;;;;;;;0.90;0.60;;;13.70;73.30;;;;;;6157330;23;19908;-67
2023/04/16 09:56:40;;;;;;;0.70;0.50;;;13.70;71.10;;;;;;6157106;23;20004;-67
2023/04/16 09:59:07;;;;;;;2.90;0.82;;;13.70;72.20;;;;;;6156999;23;20009;-67
2023/04/16 10:01:32;;;;;;;2.50;0.98;;;13.80;74.90;;;;;;6157030;23;20491;-67
2023/04/16 10:03:58;;;;;;;1.10;0.70;;;13.80;73.60;;;;;;6156702;23;20005;-66
2023/04/16 10:06:27;;;;;;;0.70;0.60;;;13.80;72.80;;;;;;6156846;23;20024;-67
2023/04/16 10:08:56;;;;;;;1.55;0.73;;;13.90;72.80;;;;;;6156806;23;20025;-67
2023/04/16 10:11:22;;;;;;;1.33;0.82;;;13.90;72.20;;;;;;6156861;23;20332;-67
2023/04/16 10:13:48;;;;;;;3.28;0.80;;;13.90;70.50;;;;;;6156917;23;20013;-67
2023/04/16 10:16:14;;;;;;;0.80;0.65;;;13.90;70.90;;;;;;6156598;23;20007;-67
2023/04/16 10:18:42;;;;;;;1.05;0.73;;;13.90;72.50;;;;;;6156815;23;20013;-67
2023/04/16 10:21:11;;;;;;;2.13;0.80;;;14.00;71.40;;;;;;6156913;23;20010;-67
2023/04/16 10:23:38;;;;;;;4.10;0.77;;;14.10;72.40;;;;;;6156579;23;20006;-67
2023/04/16 10:26:05;;;;;;;1.52;0.90;;;14.10;69.70;;;;;;6157022;23;20016;-67
2023/04/16 10:28:34;;;;;;;1.90;0.77;;;14.10;70.40;;;;;;6156769;23;20049;-67
2023/04/16 10:31:05;;;;;;;2.25;1.08;;;14.20;71.60;;;;;;6156938;23;20025;-67
2023/04/16 10:33:33;;;;;;;1.60;1.20;;;14.30;72.60;;;;;;6156479;23;20009;-68
2023/04/16 10:36:11;;;;;;;1.80;0.80;;;14.30;70.80;;;;;;6156874;23;20001;-68
2023/04/16 10:38:48;;;;;;;0.93;0.60;;;14.40;70.40;;;;;;6156637;23;20005;-68
2023/04/16 10:41:14;;;;;;;1.48;0.90;;;14.50;70.50;;;;;;6156205;23;20049;-68
2023/04/16 10:43:40;;;;;;;1.67;0.60;;;14.70;70.10;;;;;;6156187;23;20421;-67
2023/04/16 10:46:27;;;;;;;1.38;0.70;;;14.80;69.40;;;;;;6156345;23;20009;-68
2023/04/16 10:48:55;;;;;;;1.63;0.80;;;14.90;67.90;;;;;;6156344;23;20013;-67
2023/04/16 10:51:32;;;;;;;1.05;0.85;;;15.00;67.40;;;;;;6156065;23;20445;-67
2023/04/16 10:54:18;;;;;;;0.90;0.60;;;15.00;68.50;;;;;;6156467;23;20332;-67
2023/04/16 10:56:45;;;;;;;1.38;0.70;;;15.20;66.90;;;;;;6156485;23;20424;-68
2023/04/16 10:59:12;;;;;;;4.38;0.60;;;15.30;68.40;;;;;;6153277;23;20077;-67
2023/04/16 11:01:42;;;;;;;0.50;0.40;;;15.40;65.80;;;;;;6152808;23;20073;-67
2023/04/16 11:04:19;;;;;;;1.02;0.40;;;15.50;62.10;;;;;;6155363;23;20001;-67
2023/04/16 11:07:13;;;;;;;0.70;0.40;;;15.60;62.40;;;;;;6156314;23;20001;-67
2023/04/16 11:10:02;;;;;;;1.75;0.60;;;15.80;62.90;;;;;;6156359;23;20065;-66
2023/04/16 11:12:40;;;;;;;0.82;0.40;;;15.90;60.90;;;;;;6156271;23;20001;-67
2023/04/16 11:15:08;;;;;;;2.33;0.43;;;16.00;59.50;;;;;;6156125;23;20068;-67
2023/04/16 11:17:49;;;;;;;0.45;0.30;;;16.10;58.70;;;;;;6156305;23;20372;-67
2023/04/16 11:20:21;;;;;;;0.95;0.50;;;16.10;56.80;;;;;;6156251;23;20008;-66
2023/04/16 11:22:48;;;;;;;1.30;0.70;;;16.10;54.50;;;;;;6155093;23;20064;-67
2023/04/16 11:25:20;;;;;;;1.25;0.47;;;16.00;56.10;;;;;;6152545;23;20009;-67
2023/04/16 11:27:46;;;;;;;0.65;0.40;;;15.90;57.10;;;;;;6152876;23;20100;-67
2023/04/16 11:30:12;;;;;;;1.02;0.40;;;15.90;55.90;;;;;;6154584;23;20060;-67
2023/04/16 11:32:39;;;;;;;0.95;0.47;;;15.80;56.30;;;;;;6155806;23;20012;-68
2023/04/16 11:35:17;;;;;;;1.50;0.60;;;15.80;56.40;;;;;;6155667;23;20001;-67
2023/04/16 11:37:44;;;;;;;2.05;1.15;;;15.70;58.60;;;;;;6155538;23;20025;-67
2023/04/16 11:40:11;;;;;;;2.20;0.60;;;15.60;57.90;;;;;;6155493;23;20014;-67
2023/04/16 11:42:41;;;;;;;0.90;0.63;;;15.60;57.70;;;;;;6155789;23;20432;-67
2023/04/16 11:45:08;;;;;;;0.73;0.60;;;15.50;56.80;;;;;;6155577;23;20012;-67
2023/04/16 11:47:51;;;;;;;0.85;0.60;;;15.50;59.00;;;;;;6155829;23;20063;-67
2023/04/16 11:50:22;;;;;;;1.05;0.65;;;15.40;59.30;;;;;;6155677;23;20021;-67
2023/04/16 11:52:50;;;;;;;1.10;0.60;;;15.40;60.00;;;;;;6155396;23;20498;-67
2023/04/16 11:55:16;;;;;;;1.23;0.73;;;15.40;57.90;;;;;;6155799;23;20005;-67
2023/04/16 11:57:42;;;;;;;2.95;0.70;;;15.50;59.30;;;;;;6155544;23;20008;-67
2023/04/16 12:00:14;;;;;;;1.00;0.60;;;15.50;60.40;;;;;;6155523;23;20002;-68
2023/04/16 12:02:44;;;;;;;1.48;0.73;;;15.50;59.80;;;;;;6155596;23;20546;-67
2023/04/16 12:05:33;;;;;;;0.98;0.57;;;15.50;59.30;;;;;;6155567;23;20008;-67
2023/04/16 12:08:03;;;;;;;1.40;0.68;;;15.50;59.80;;;;;;6155709;23;20084;-67
2023/04/16 12:10:33;;;;;;;1.42;0.77;;;15.50;58.50;;;;;;6155608;23;20010;-67
2023/04/16 12:13:10;;;;;;;0.80;0.40;;;15.40;59.40;;;;;;6156044;23;20009;-67
2023/04/16 12:15:52;;;;;;;0.65;0.50;;;15.50;56.10;;;;;;6155955;23;20025;-67
2023/04/16 12:18:21;;;;;;;1.80;0.55;;;15.50;56.30;;;;;;6153833;23;20006;-67
2023/04/16 12:20:47;;;;;;;1.00;0.73;;;15.50;57.00;;;;;;6152293;23;20104;-67
2023/04/16 12:23:33;;;;;;;2.85;0.80;;;15.50;57.30;;;;;;6153202;23;20424;-67
2023/04/16 12:26:09;;;;;;;1.08;0.60;;;15.50;59.60;;;;;;6155806;23;20021;-67
2023/04/16 12:28:37;;;;;;;1.42;0.85;;;15.60;60.00;;;;;;6155620;23;20095;-67
2023/04/16 12:31:04;;;;;;;1.48;0.70;;;15.60;58.70;;;;;;6155530;23;20013;-67
2023/04/16 12:33:30;;;;;;;0.95;0.65;;;15.70;58.40;;;;;;6154551;23;20001;-67
2023/04/16 12:35:56;;;;;;;1.20;0.88;;;15.80;58.40;;;;;;6152500;23;20008;-67
2023/04/16 12:38:22;;;;;;;1.13;0.70;;;15.80;58.70;;;;;;6151737;23;20008;-67
2023/04/16 12:40:47;;;;;;;2.05;0.60;;;15.90;58.70;;;;;;6151918;23;20009;-67
2023/04/16 12:43:13;;;;;;;1.88;0.55;;;16.00;58.50;;;;;;6154635;23;20013;-67
2023/04/16 12:45:39;;;;;;;0.73;0.50;;;16.00;57.60;;;;;;6155615;23;20008;-67
2023/04/16 12:48:05;;;;;;;1.42;0.90;;;16.10;56.20;;;;;;6129291;23;20512;-68
2023/04/16 12:50:31;;;;;;;1.23;0.70;;;16.10;57.00;;;;;;6155093;23;20018;-68
2023/04/16 12:52:58;;;;;;;2.53;0.63;;;16.20;58.10;;;;;;6157761;23;20088;-68